EWR weather

Newark Liberty International Airport
Newark, New Jersey, United States

Public forecast

Using degrees Fahrenheit for public forecast. Weather courtesy of forecast.io.

METAR (pilot weather report)

Retrieved 2018/04/26 19:51 UTC (47 minutes ago):

KEWR 261951Z 26016G19KT 10SM FEW055 SCT250 21/06 A2975 RMK AO2 SLP074 T02060056

TAF (pilot weather forecast)

Retrieved 2018/04/26 18:27 UTC (2 hours ago):

TAF KEWR 261725Z 2618/2724 28014G23KT P6SM SCT040 SCT250 FM262300 28008KT P6SM SCT250 FM270300 VRB04KT P6SM BKN200 FM271100 10006KT P6SM SCT035 SCT080 BKN120 FM271300 09006KT 4SM -SHRA SCT025 BKN060 FM271600 10010KT 3SM SHRA BKN010 FM271900 06006KT 2SM -DZ BR BKN008